Colliers, Canada
Current Conditions -  °F | °C
As of 7:00 AM on Monday 22 Dec 2014 (Local Time) from CYYT Reporting Station
Overcast Overcast  
Wind Chill: 15°   Ceiling: 1300
Heat Index: 27°   Visibility: 15mi
Dew Point: 23°   Wind: 14mph
Humidity: 86%   Direction: 360°N
Pressure: 30.33"   Gusts: 22mph
Location:  47.45°N, 53.23°W
Report Text: CYYT 221000Z 36012G19KT 15SM OVC013 M03/M05 A3033 RMK SC8 SLP278
Loading
Personal Weather Stations






























Interactive Weather Map New forecast layout! Learn more

10-Day Weather Forecast

Advertisements
Track Severe Weather on mobile